Time,TemperatureF,DewpointF,PressureIn,WindDirection,WindDirectionDegrees,WindSpeedMPH,WindSpeedGustMPH,Humidity,HourlyPrecipIn,Conditions,Clouds,dailyrainin,SoftwareType,DateUTC
2013-07-12 00:01:00,65.8,65.0,29.96,North,359,0.0,2.0,96,0.00,,,0.00,weatherlink.com 1.10,2013-07-12 04:01:00,
2013-07-12 00:16:00,65.7,64.0,29.96,North,359,0.0,0.0,95,0.00,,,0.00,weatherlink.com 1.10,2013-07-12 04:16:00,
2013-07-12 00:31:00,65.5,64.0,29.96,North,359,1.0,2.0,94,0.00,,,0.00,weatherlink.com 1.10,2013-07-12 04:31:00,
2013-07-12 00:47:00,65.2,64.0,29.95,North,359,0.0,3.0,95,0.00,,,0.00,weatherlink.com 1.10,2013-07-12 04:47:00,
2013-07-12 01:02:00,64.6,63.0,29.95,North,359,1.0,2.0,94,0.00,,,0.00,weatherlink.com 1.10,2013-07-12 05:02:00,
2013-07-12 01:17:00,64.5,63.0,29.95,North,359,1.0,3.0,94,0.00,,,0.00,weatherlink.com 1.10,2013-07-12 05:17:00,
2013-07-12 01:32:00,64.4,63.0,29.95,North,359,0.0,2.0,95,0.00,,,0.00,weatherlink.com 1.10,2013-07-12 05:32:00,
2013-07-12 01:47:00,64.4,63.0,29.95,North,359,0.0,0.0,95,0.00,,,0.00,weatherlink.com 1.10,2013-07-12 05:47:00,
2013-07-12 02:02:00,64.6,63.0,29.95,North,359,1.0,2.0,95,0.00,,,0.00,weatherlink.com 1.10,2013-07-12 06:02:00,
2013-07-12 02:17:00,64.6,63.0,29.95,North,359,0.0,2.0,94,0.00,,,0.00,weatherlink.com 1.10,2013-07-12 06:17:00,
2013-07-12 02:32:00,64.2,63.0,29.95,North,359,0.0,2.0,95,0.00,,,0.00,weatherlink.com 1.10,2013-07-12 06:32:00,
2013-07-12 02:47:00,64.1,63.0,29.95,ENE,63,1.0,3.0,95,0.00,,,0.00,weatherlink.com 1.10,2013-07-12 06:47:00,
2013-07-12 03:02:00,63.8,62.0,29.95,ENE,57,2.0,3.0,95,0.00,,,0.00,weatherlink.com 1.10,2013-07-12 07:02:00,
2013-07-12 03:17:00,63.6,63.0,29.94,ENE,57,1.0,2.0,96,0.00,,,0.00,weatherlink.com 1.10,2013-07-12 07:17:00,
2013-07-12 03:32:00,63.3,62.0,29.93,ENE,57,1.0,2.0,96,0.00,,,0.00,weatherlink.com 1.10,2013-07-12 07:32:00,
2013-07-12 03:47:00,62.9,62.0,29.93,ENE,57,1.0,3.0,95,0.00,,,0.00,weatherlink.com 1.10,2013-07-12 07:47:00,
2013-07-12 04:02:00,62.9,62.0,29.94,ENE,57,0.0,3.0,95,0.00,,,0.00,weatherlink.com 1.10,2013-07-12 08:02:00,
2013-07-12 04:17:00,63.0,62.0,29.94,ENE,57,0.0,2.0,95,0.00,,,0.00,weatherlink.com 1.10,2013-07-12 08:17:00,
2013-07-12 04:32:00,62.9,62.0,29.94,ENE,57,0.0,1.0,95,0.00,,,0.00,weatherlink.com 1.10,2013-07-12 08:32:00,
2013-07-12 04:47:00,62.9,62.0,29.94,ENE,57,0.0,2.0,96,0.00,,,0.00,weatherlink.com 1.10,2013-07-12 08:47:00,
2013-07-12 05:02:00,62.8,61.0,29.94,ENE,57,0.0,0.0,95,0.00,,,0.00,weatherlink.com 1.10,2013-07-12 09:02:00,
2013-07-12 05:17:00,62.6,62.0,29.94,ENE,57,0.0,0.0,96,0.00,,,0.00,weatherlink.com 1.10,2013-07-12 09:17:00,
2013-07-12 05:32:00,62.3,61.0,29.94,ENE,57,0.0,3.0,96,0.00,,,0.00,weatherlink.com 1.10,2013-07-12 09:32:00,
2013-07-12 05:47:00,62.3,61.0,29.94,ENE,57,0.0,1.0,96,0.00,,,0.00,weatherlink.com 1.10,2013-07-12 09:47:00,
2013-07-12 06:02:00,62.3,61.0,29.94,ENE,57,1.0,2.0,96,0.00,,,0.00,weatherlink.com 1.10,2013-07-12 10:02:00,
2013-07-12 06:17:00,62.2,61.0,29.94,ENE,57,0.0,1.0,94,0.00,,,0.00,weatherlink.com 1.10,2013-07-12 10:17:00,
2013-07-12 06:32:00,61.9,61.0,29.94,ENE,57,0.0,2.0,95,0.00,,,0.00,weatherlink.com 1.10,2013-07-12 10:32:00,
2013-07-12 06:47:00,61.9,61.0,29.94,ENE,57,1.0,3.0,95,0.00,,,0.00,weatherlink.com 1.10,2013-07-12 10:47:00,
2013-07-12 07:02:00,62.0,61.0,29.94,ENE,57,1.0,2.0,95,0.00,,,0.00,weatherlink.com 1.10,2013-07-12 11:02:00,
2013-07-12 07:17:00,61.9,61.0,29.94,ENE,57,2.0,2.0,95,0.00,,,0.00,weatherlink.com 1.10,2013-07-12 11:17:00,
2013-07-12 07:32:00,62.0,60.0,29.95,ENE,57,0.0,2.0,94,0.00,,,0.00,weatherlink.com 1.10,2013-07-12 11:32:00,
2013-07-12 07:47:00,62.0,61.0,29.96,ENE,57,0.0,0.0,95,0.00,,,0.00,weatherlink.com 1.10,2013-07-12 11:47:00,
2013-07-12 08:02:00,61.8,61.0,29.96,ENE,57,0.0,0.0,96,0.00,,,0.00,weatherlink.com 1.10,2013-07-12 12:02:00,
2013-07-12 08:17:00,61.9,61.0,29.97,ENE,57,0.0,0.0,97,0.00,,,0.00,weatherlink.com 1.10,2013-07-12 12:17:00,
2013-07-12 08:32:00,62.2,61.0,29.97,ENE,57,0.0,0.0,97,0.00,,,0.00,weatherlink.com 1.10,2013-07-12 12:32:00,
2013-07-12 08:47:00,62.5,62.0,29.97,ENE,57,0.0,0.0,97,0.00,,,0.00,weatherlink.com 1.10,2013-07-12 12:47:00,
2013-07-12 09:02:00,63.1,62.0,29.97,ENE,57,0.0,0.0,97,0.00,,,0.00,weatherlink.com 1.10,2013-07-12 13:02:00,
2013-07-12 09:17:00,63.8,63.0,29.97,ENE,57,0.0,1.0,96,0.00,,,0.00,weatherlink.com 1.10,2013-07-12 13:17:00,
2013-07-12 09:32:00,65.1,63.0,29.97,ENE,57,0.0,0.0,94,0.00,,,0.00,weatherlink.com 1.10,2013-07-12 13:32:00,
2013-07-12 09:47:00,65.9,64.0,29.98,ENE,57,0.0,0.0,93,0.00,,,0.00,weatherlink.com 1.10,2013-07-12 13:47:00,
2013-07-12 10:02:00,66.3,65.0,29.98,West,259,0.0,1.0,94,0.00,,,0.00,weatherlink.com 1.10,2013-07-12 14:02:00,
2013-07-12 10:17:00,66.8,65.0,29.98,SW,219,0.0,2.0,92,0.00,,,0.00,weatherlink.com 1.10,2013-07-12 14:17:00,
2013-07-12 10:32:00,66.8,65.0,29.98,SW,229,1.0,3.0,92,0.00,,,0.00,weatherlink.com 1.10,2013-07-12 14:32:00,
2013-07-12 10:48:00,67.7,65.0,29.98,SSW,200,3.0,4.0,91,0.00,,,0.00,weatherlink.com 1.10,2013-07-12 14:48:00,
2013-07-12 11:03:00,68.3,65.0,29.98,West,259,1.0,6.0,89,0.00,,,0.00,weatherlink.com 1.10,2013-07-12 15:03:00,
2013-07-12 11:18:00,69.0,65.0,29.98,West,262,3.0,4.0,87,0.00,,,0.00,weatherlink.com 1.10,2013-07-12 15:18:00,
2013-07-12 11:33:00,68.9,65.0,29.98,NW,306,1.0,7.0,86,0.00,,,0.00,weatherlink.com 1.10,2013-07-12 15:33:00,
2013-07-12 11:48:00,69.8,64.0,29.98,NNW,332,0.0,2.0,82,0.00,,,0.00,weatherlink.com 1.10,2013-07-12 15:48:00,
2013-07-12 12:03:00,69.2,65.0,29.98,WNW,298,0.0,5.0,85,0.00,,,0.00,weatherlink.com 1.10,2013-07-12 16:03:00,
2013-07-12 12:18:00,69.6,66.0,29.97,WSW,246,0.0,2.0,87,0.00,,,0.00,weatherlink.com 1.10,2013-07-12 16:18:00,
2013-07-12 12:33:00,70.5,63.0,29.97,ENE,67,2.0,3.0,78,0.00,,,0.00,weatherlink.com 1.10,2013-07-12 16:33:00,
2013-07-12 12:48:00,70.3,64.0,29.97,SSE,149,0.0,2.0,80,0.00,,,0.00,weatherlink.com 1.10,2013-07-12 16:48:00,
2013-07-12 13:18:00,69.7,64.0,29.97,SW,221,0.0,4.0,83,0.00,,,0.00,weatherlink.com 1.10,2013-07-12 17:18:00,
2013-07-12 13:33:00,70.1,63.0,29.97,South,171,0.0,2.0,79,0.00,,,0.00,weatherlink.com 1.10,2013-07-12 17:33:00,
2013-07-12 13:48:00,69.5,64.0,29.96,South,171,1.0,2.0,83,0.00,,,0.00,weatherlink.com 1.10,2013-07-12 17:48:00,
2013-07-12 14:03:00,69.6,64.0,29.96,SSE,162,0.0,3.0,83,0.00,,,0.00,weatherlink.com 1.10,2013-07-12 18:03:00,
2013-07-12 14:18:00,70.6,65.0,29.96,SSE,149,0.0,2.0,83,0.00,,,0.00,weatherlink.com 1.10,2013-07-12 18:18:00,
2013-07-12 14:48:00,69.7,65.0,29.97,South,191,1.0,2.0,86,0.00,,,0.00,weatherlink.com 1.10,2013-07-12 18:48:00,
2013-07-12 15:03:00,70.4,63.0,29.97,ENE,60,1.0,6.0,78,0.00,,,0.00,weatherlink.com 1.10,2013-07-12 19:03:00,
2013-07-12 15:18:00,70.1,64.0,29.96,ENE,63,0.0,2.0,81,0.00,,,0.00,weatherlink.com 1.10,2013-07-12 19:18:00,
2013-07-12 15:33:00,69.8,64.0,29.96,South,189,0.0,3.0,81,0.00,,,0.00,weatherlink.com 1.10,2013-07-12 19:33:00,
2013-07-12 16:03:00,72.7,65.0,29.96,SSW,210,0.0,3.0,77,0.00,,,0.00,weatherlink.com 1.10,2013-07-12 20:03:00,
2013-07-12 16:18:00,73.1,64.0,29.96,West,259,0.0,4.0,72,0.00,,,0.00,weatherlink.com 1.10,2013-07-12 20:18:00,
2013-07-12 16:33:00,72.2,65.0,29.95,WSW,248,2.0,5.0,77,0.00,,,0.00,weatherlink.com 1.10,2013-07-12 20:33:00,
2013-07-12 16:48:00,72.1,64.0,29.94,SSW,199,3.0,3.0,76,0.00,,,0.00,weatherlink.com 1.10,2013-07-12 20:48:00,
2013-07-12 17:03:00,71.5,64.0,29.94,SSW,197,2.0,5.0,76,0.00,,,0.00,weatherlink.com 1.10,2013-07-12 21:03:00,
2013-07-12 17:18:00,70.9,64.0,29.95,South,189,0.0,2.0,78,0.00,,,0.00,weatherlink.com 1.10,2013-07-12 21:18:00,
2013-07-12 17:48:00,71.0,63.0,29.95,NNE,18,1.0,4.0,75,0.00,,,0.00,weatherlink.com 1.10,2013-07-12 21:48:00,
2013-07-12 18:03:00,70.7,64.0,29.96,SW,217,1.0,4.0,79,0.00,,,0.00,weatherlink.com 1.10,2013-07-12 22:03:00,
2013-07-12 18:18:00,69.9,65.0,29.96,SSW,211,0.0,2.0,83,0.00,,,0.00,weatherlink.com 1.10,2013-07-12 22:18:00,
2013-07-12 18:33:00,69.5,64.0,29.96,ESE,105,0.0,2.0,83,0.00,,,0.00,weatherlink.com 1.10,2013-07-12 22:33:00,
2013-07-12 19:05:00,67.8,64.0,29.96,SSW,200,0.0,2.0,86,0.00,,,0.00,weatherlink.com 1.10,2013-07-12 23:05:00,
2013-07-12 19:19:00,67.4,63.0,29.97,SSW,200,0.0,2.0,85,0.00,,,0.00,weatherlink.com 1.10,2013-07-12 23:19:00,
2013-07-12 19:34:00,67.2,64.0,29.97,SSW,200,0.0,0.0,88,0.00,,,0.00,weatherlink.com 1.10,2013-07-12 23:34:00,
2013-07-12 19:49:00,67.4,64.0,29.98,SSW,200,0.0,1.0,87,0.00,,,0.00,weatherlink.com 1.10,2013-07-12 23:49:00,
2013-07-12 20:04:00,67.5,63.0,29.98,SSW,200,0.0,0.0,85,0.00,,,0.00,weatherlink.com 1.10,2013-07-13 00:04:00,
2013-07-12 20:19:00,67.0,63.0,29.99,SSW,200,0.0,0.0,88,0.00,,,0.00,weatherlink.com 1.10,2013-07-13 00:19:00,
2013-07-12 20:34:00,66.5,63.0,29.99,SSW,202,2.0,3.0,87,0.00,,,0.00,weatherlink.com 1.10,2013-07-13 00:34:00,
2013-07-12 20:49:00,65.5,61.0,29.99,SW,214,2.0,2.0,86,0.00,,,0.00,weatherlink.com 1.10,2013-07-13 00:49:00,
2013-07-12 21:04:00,65.0,61.0,29.99,SW,214,0.0,1.0,87,0.00,,,0.00,weatherlink.com 1.10,2013-07-13 01:04:00,
2013-07-12 21:19:00,64.4,61.0,29.99,SW,230,0.0,1.0,88,0.00,,,0.00,weatherlink.com 1.10,2013-07-13 01:19:00,
2013-07-12 21:34:00,64.0,61.0,30.00,SW,230,3.0,3.0,90,0.00,,,0.00,weatherlink.com 1.10,2013-07-13 01:34:00,
2013-07-12 21:49:00,63.8,61.0,29.99,ENE,60,0.0,1.0,91,0.00,,,0.00,weatherlink.com 1.10,2013-07-13 01:49:00,
2013-07-12 22:04:00,63.3,61.0,30.00,ENE,60,0.0,0.0,91,0.00,,,0.00,weatherlink.com 1.10,2013-07-13 02:04:00,
2013-07-12 22:19:00,62.9,60.0,30.01,NE,49,0.0,1.0,91,0.00,,,0.00,weatherlink.com 1.10,2013-07-13 02:19:00,
2013-07-12 22:34:00,62.7,60.0,30.01,NE,49,0.0,1.0,91,0.00,,,0.00,weatherlink.com 1.10,2013-07-13 02:34:00,
2013-07-12 22:49:00,62.3,60.0,30.01,NE,49,0.0,2.0,91,0.00,,,0.00,weatherlink.com 1.10,2013-07-13 02:49:00,
2013-07-12 23:04:00,62.0,60.0,30.01,NE,49,0.0,1.0,92,0.00,,,0.00,weatherlink.com 1.10,2013-07-13 03:04:00,
2013-07-12 23:19:00,61.7,60.0,30.01,NE,49,1.0,1.0,93,0.00,,,0.00,weatherlink.com 1.10,2013-07-13 03:19:00,
2013-07-12 23:34:00,62.0,60.0,30.00,NE,49,0.0,1.0,92,0.00,,,0.00,weatherlink.com 1.10,2013-07-13 03:34:00,
2013-07-12 23:49:00,61.9,60.0,30.00,NE,49,0.0,1.0,92,0.00,,,0.00,weatherlink.com 1.10,2013-07-13 03:49:00,